createdAt,value
2018-05-03T00:00:45.665Z,7.15
2018-05-03T00:01:45.659Z,7.27
2018-05-03T00:02:45.659Z,7.28
2018-05-03T00:03:45.770Z,7.26
2018-05-03T00:04:45.642Z,7.18
2018-05-03T00:05:45.632Z,7.26
2018-05-03T00:06:45.664Z,7.15
2018-05-03T00:07:45.789Z,7.26
2018-05-03T00:08:45.640Z,7.38
2018-05-03T00:09:45.757Z,7.3
2018-05-03T00:10:45.695Z,7.29
2018-05-03T00:11:45.693Z,7.32
2018-05-03T00:12:45.669Z,7.3
2018-05-03T00:13:45.665Z,7.35
2018-05-03T00:14:45.678Z,7.32
2018-05-03T00:15:45.693Z,7.38
2018-05-03T00:16:45.694Z,7.35
2018-05-03T00:17:45.670Z,7.33
2018-05-03T00:18:45.669Z,7.33
2018-05-03T00:19:45.667Z,7.31
2018-05-03T00:20:45.680Z,7.27
2018-05-03T00:21:45.664Z,7.32
2018-05-03T00:22:45.660Z,7.35
2018-05-03T00:23:45.711Z,7.31
2018-05-03T00:24:45.660Z,7.27
2018-05-03T00:25:45.647Z,7.2
2018-05-03T00:26:45.866Z,7.21
2018-05-03T00:27:45.660Z,7.37
2018-05-03T00:28:45.660Z,7.29
2018-05-03T00:29:45.660Z,7.35
2018-05-03T00:30:45.681Z,7.28
2018-05-03T00:31:45.782Z,7.4
2018-05-03T00:32:45.636Z,7.41
2018-05-03T00:33:45.796Z,7.42
2018-05-03T00:34:45.686Z,7.38
2018-05-03T00:35:45.683Z,7.38
2018-05-03T00:36:45.673Z,7.37
2018-05-03T00:37:45.838Z,7.39
2018-05-03T00:38:45.649Z,7.41
2018-05-03T00:39:45.674Z,7.4
2018-05-03T00:40:45.651Z,7.42
2018-05-03T00:41:45.842Z,7.49
2018-05-03T00:42:45.663Z,7.3
2018-05-03T00:43:45.660Z,7.32
2018-05-03T00:44:45.744Z,7.29
2018-05-03T00:45:46.133Z,7.36
2018-05-03T00:46:45.658Z,7.36
2018-05-03T00:47:45.663Z,7.38
2018-05-03T00:48:45.667Z,7.44
2018-05-03T00:49:45.671Z,7.48
2018-05-03T00:50:45.663Z,7.43
2018-05-03T00:51:45.673Z,7.32
2018-05-03T00:52:45.661Z,7.44
2018-05-03T00:53:45.666Z,7.45
2018-05-03T00:54:45.684Z,7.35
2018-05-03T00:55:45.648Z,7.35
2018-05-03T00:56:45.659Z,7.49
2018-05-03T00:57:45.666Z,7.49
2018-05-03T00:58:45.688Z,7.48
2018-05-03T00:59:45.689Z,7.48
2018-05-03T01:00:45.662Z,7.4
2018-05-03T01:01:45.652Z,7.46
2018-05-03T01:02:45.760Z,7.45
2018-05-03T01:03:45.668Z,7.43
2018-05-03T01:04:45.663Z,7.44
2018-05-03T01:05:45.665Z,7.45
2018-05-03T01:06:45.667Z,7.45
2018-05-03T01:07:45.701Z,7.43
2018-05-03T01:08:45.691Z,7.4
2018-05-03T01:09:45.657Z,7.44
2018-05-03T01:10:45.694Z,7.44
2018-05-03T01:11:45.664Z,7.39
2018-05-03T01:12:45.705Z,7.33
2018-05-03T01:13:45.713Z,7.41
2018-05-03T01:14:45.672Z,7.45
2018-05-03T01:15:45.704Z,7.36
2018-05-03T01:16:45.734Z,7.36
2018-05-03T01:17:45.704Z,7.36
2018-05-03T01:18:45.693Z,7.36
2018-05-03T01:19:45.710Z,7.37
2018-05-03T01:20:45.764Z,7.44
2018-05-03T01:21:45.700Z,7.47
2018-05-03T01:22:45.673Z,7.53
2018-05-03T01:23:45.749Z,7.43
2018-05-03T01:24:45.651Z,7.54
2018-05-03T01:25:45.740Z,7.48
2018-05-03T01:26:45.701Z,7.57
2018-05-03T01:27:45.901Z,7.6
2018-05-03T01:28:45.660Z,7.53
2018-05-03T01:29:45.681Z,7.45
2018-05-03T01:30:45.745Z,7.56
2018-05-03T01:31:45.692Z,7.57
2018-05-03T01:32:45.683Z,7.61
2018-05-03T01:33:45.681Z,7.59
2018-05-03T01:34:45.664Z,7.57
2018-05-03T01:35:45.664Z,7.6
2018-05-03T01:36:45.665Z,7.59
2018-05-03T01:37:45.674Z,7.64
2018-05-03T01:38:45.770Z,7.62
2018-05-03T01:39:45.680Z,7.64
2018-05-03T01:40:45.679Z,7.6
2018-05-03T01:41:45.697Z,7.63
2018-05-03T01:42:45.705Z,7.6
2018-05-03T01:43:45.695Z,7.53
2018-05-03T01:44:45.675Z,7.51
2018-05-03T01:45:45.722Z,7.56
2018-05-03T01:46:45.701Z,7.59
2018-05-03T01:47:45.705Z,7.51
2018-05-03T01:48:45.860Z,7.55
2018-05-03T01:49:45.916Z,7.61
2018-05-03T01:50:45.691Z,7.5
2018-05-03T01:51:45.697Z,7.52
2018-05-03T01:52:45.710Z,7.59
2018-05-03T01:53:45.728Z,7.42
2018-05-03T01:54:46.449Z,7.4
2018-05-03T01:55:45.698Z,7.46
2018-05-03T01:56:45.719Z,7.42
2018-05-03T01:57:45.707Z,7.41
2018-05-03T01:58:45.718Z,7.61
2018-05-03T01:59:45.691Z,7.53
2018-05-03T02:00:45.699Z,7.52
2018-05-03T02:01:45.740Z,7.52
2018-05-03T02:02:45.698Z,7.56
2018-05-03T02:03:45.724Z,7.61
2018-05-03T02:04:45.687Z,7.6
2018-05-03T02:05:45.688Z,7.62
2018-05-03T02:06:45.791Z,7.57
2018-05-03T02:07:45.705Z,7.56
2018-05-03T02:08:45.708Z,7.55
2018-05-03T02:09:45.692Z,7.59
2018-05-03T02:10:45.721Z,7.6
2018-05-03T02:11:45.681Z,7.61
2018-05-03T02:12:45.723Z,7.58
2018-05-03T02:13:45.685Z,7.5
2018-05-03T02:14:45.720Z,7.63
2018-05-03T02:15:45.678Z,7.62
2018-05-03T02:16:45.712Z,7.62
2018-05-03T02:17:45.793Z,7.71
2018-05-03T02:18:45.689Z,7.71
2018-05-03T02:19:45.695Z,7.59
2018-05-03T02:20:45.728Z,7.68
2018-05-03T02:21:45.737Z,7.64
2018-05-03T02:22:45.715Z,7.63
2018-05-03T02:23:45.720Z,7.68
2018-05-03T02:24:45.685Z,7.64
2018-05-03T02:25:45.710Z,7.65
2018-05-03T02:26:45.700Z,7.59
2018-05-03T02:27:45.696Z,7.56
2018-05-03T02:28:45.714Z,7.72
2018-05-03T02:29:45.701Z,7.73
2018-05-03T02:30:45.736Z,7.77
2018-05-03T02:31:45.799Z,7.71
2018-05-03T02:32:45.719Z,7.74
2018-05-03T02:33:45.739Z,7.7
2018-05-03T02:34:45.714Z,7.72
2018-05-03T02:35:45.724Z,7.71
2018-05-03T02:36:45.740Z,7.7
2018-05-03T02:37:45.691Z,7.68
2018-05-03T02:38:45.715Z,7.6
2018-05-03T02:39:45.790Z,7.67
2018-05-03T02:40:45.743Z,7.63
2018-05-03T02:41:45.722Z,7.68
2018-05-03T02:42:45.862Z,7.76
2018-05-03T02:43:45.725Z,7.77
2018-05-03T02:44:45.776Z,7.75
2018-05-03T02:45:45.720Z,7.7
2018-05-03T02:46:45.781Z,7.75
2018-05-03T02:47:45.752Z,7.74
2018-05-03T02:48:45.713Z,7.72
2018-05-03T02:49:45.737Z,7.64
2018-05-03T02:50:45.871Z,7.73
2018-05-03T02:51:45.728Z,7.64
2018-05-03T02:52:45.738Z,7.66
2018-05-03T02:53:45.851Z,7.66
2018-05-03T02:54:45.726Z,7.7
2018-05-03T02:55:45.731Z,7.64
2018-05-03T02:56:45.741Z,7.62
2018-05-03T02:57:45.744Z,7.64
2018-05-03T02:58:45.726Z,7.66
2018-05-03T02:59:45.776Z,7.65
2018-05-03T03:00:45.751Z,7.69
2018-05-03T03:01:45.808Z,7.72
2018-05-03T03:02:45.702Z,7.78
2018-05-03T03:03:45.739Z,7.62
2018-05-03T03:04:45.736Z,7.79
2018-05-03T03:05:45.808Z,7.68
2018-05-03T03:06:45.766Z,7.65
2018-05-03T03:07:45.743Z,7.88
2018-05-03T03:08:45.760Z,7.86
2018-05-03T03:09:46.299Z,7.77
2018-05-03T03:10:45.741Z,7.88
2018-05-03T03:11:45.767Z,7.82
2018-05-03T03:12:45.734Z,7.81
2018-05-03T03:13:45.725Z,7.69
2018-05-03T03:14:45.741Z,7.71
2018-05-03T03:15:45.735Z,7.76
2018-05-03T03:16:45.724Z,7.7
2018-05-03T03:17:45.739Z,7.69
2018-05-03T03:18:45.730Z,7.84
2018-05-03T03:19:45.708Z,7.78
2018-05-03T03:20:45.735Z,7.75
2018-05-03T03:21:45.742Z,7.79
2018-05-03T03:22:45.739Z,7.66
2018-05-03T03:23:45.744Z,7.69
2018-05-03T03:24:45.740Z,7.75
2018-05-03T03:25:45.719Z,7.74
2018-05-03T03:26:45.736Z,7.68
2018-05-03T03:27:45.733Z,7.77
2018-05-03T03:28:45.716Z,7.72
2018-05-03T03:29:45.753Z,7.73
2018-05-03T03:30:45.786Z,7.72
2018-05-03T03:31:45.807Z,7.68
2018-05-03T03:32:45.905Z,7.72
2018-05-03T03:33:45.773Z,7.74
2018-05-03T03:34:45.746Z,7.66
2018-05-03T03:35:45.741Z,7.65
2018-05-03T03:36:45.745Z,7.59
2018-05-03T03:37:45.723Z,7.66
2018-05-03T03:38:45.925Z,7.59
2018-05-03T03:39:45.748Z,7.6
2018-05-03T03:40:45.814Z,7.64
2018-05-03T03:41:45.727Z,7.71
2018-05-03T03:42:45.725Z,7.71
2018-05-03T03:43:45.718Z,7.7
2018-05-03T03:44:45.765Z,7.71
2018-05-03T03:45:45.760Z,7.69
2018-05-03T03:46:45.737Z,7.69
2018-05-03T03:47:45.762Z,7.69
2018-05-03T03:48:45.746Z,7.7
2018-05-03T03:49:45.835Z,7.64
2018-05-03T03:50:45.789Z,7.59
2018-05-03T03:51:45.726Z,7.57
2018-05-03T03:52:45.825Z,7.55
2018-05-03T03:53:45.741Z,7.57
2018-05-03T03:54:45.880Z,7.53
2018-05-03T03:55:45.770Z,7.57
2018-05-03T03:56:45.793Z,7.51
2018-05-03T03:57:45.747Z,7.52
2018-05-03T03:58:45.776Z,7.51
2018-05-03T03:59:45.758Z,7.5
2018-05-03T04:00:45.755Z,7.5
2018-05-03T04:01:45.759Z,7.53
2018-05-03T04:02:45.745Z,7.57
2018-05-03T04:03:45.778Z,7.57
2018-05-03T04:04:45.753Z,7.55
2018-05-03T04:05:45.781Z,7.52
2018-05-03T04:06:45.735Z,7.56
2018-05-03T04:07:45.763Z,7.49
2018-05-03T04:08:45.750Z,7.46
2018-05-03T04:09:45.756Z,7.46
2018-05-03T04:10:45.763Z,7.53
2018-05-03T04:11:45.815Z,7.55
2018-05-03T04:12:45.798Z,7.52
2018-05-03T04:13:45.736Z,7.55
2018-05-03T04:14:45.773Z,7.47
2018-05-03T04:15:45.729Z,7.56
2018-05-03T04:16:45.733Z,7.54
2018-05-03T04:17:45.778Z,7.57
2018-05-03T04:18:45.820Z,7.56
2018-05-03T04:19:45.788Z,7.58
2018-05-03T04:20:45.751Z,7.6
2018-05-03T04:21:45.758Z,7.57
2018-05-03T04:22:45.774Z,7.59
2018-05-03T04:23:45.801Z,7.54
2018-05-03T04:24:45.779Z,7.49
2018-05-03T04:25:45.749Z,7.55
2018-05-03T04:26:45.786Z,7.49
2018-05-03T04:27:45.761Z,7.51
2018-05-03T04:28:45.747Z,7.6
2018-05-03T04:29:46.009Z,7.66
2018-05-03T04:30:45.764Z,7.69
2018-05-03T04:31:45.770Z,7.7
2018-05-03T04:32:45.773Z,7.83
2018-05-03T04:33:45.761Z,7.87
2018-05-03T04:34:45.778Z,7.89
2018-05-03T04:35:45.761Z,7.88
2018-05-03T04:36:45.792Z,7.91
2018-05-03T04:37:46.856Z,7.9
2018-05-03T04:38:45.980Z,7.86
2018-05-03T04:39:45.790Z,7.89
2018-05-03T04:40:45.764Z,7.89
2018-05-03T04:41:45.789Z,7.86
2018-05-03T04:42:45.775Z,7.89
2018-05-03T04:43:45.792Z,7.91
2018-05-03T04:44:45.787Z,7.91
2018-05-03T04:45:45.809Z,7.9
2018-05-03T04:46:45.760Z,7.9
2018-05-03T04:47:45.760Z,7.89
2018-05-03T04:48:45.777Z,7.9
2018-05-03T04:49:45.787Z,7.89
2018-05-03T04:50:45.961Z,7.86
2018-05-03T04:51:45.870Z,7.86
2018-05-03T04:52:45.785Z,7.87
2018-05-03T04:53:45.845Z,7.87
2018-05-03T04:54:45.963Z,7.82
2018-05-03T04:55:45.811Z,7.83
2018-05-03T04:56:45.786Z,7.78
2018-05-03T04:57:45.756Z,7.79
2018-05-03T04:58:45.766Z,7.83
2018-05-03T04:59:45.789Z,7.85
2018-05-03T05:00:45.781Z,7.85
2018-05-03T05:01:45.771Z,7.85
2018-05-03T05:02:45.790Z,7.83
2018-05-03T05:03:45.762Z,7.85
2018-05-03T05:04:46.349Z,7.83
2018-05-03T05:05:45.795Z,7.83
2018-05-03T05:06:45.770Z,7.84
2018-05-03T05:07:45.845Z,7.82
2018-05-03T05:08:45.792Z,7.85
2018-05-03T05:09:45.830Z,7.83
2018-05-03T05:10:45.788Z,7.83
2018-05-03T05:11:45.796Z,7.83
2018-05-03T05:12:45.779Z,7.87
2018-05-03T05:13:45.784Z,7.87
2018-05-03T05:14:45.819Z,7.87
2018-05-03T05:15:45.792Z,7.89
2018-05-03T05:16:45.789Z,7.91
2018-05-03T05:17:45.803Z,7.92
2018-05-03T05:18:45.779Z,7.91
2018-05-03T05:19:45.867Z,7.95
2018-05-03T05:20:45.789Z,7.89
2018-05-03T05:21:45.871Z,7.93
2018-05-03T05:22:45.817Z,7.92
2018-05-03T05:23:45.767Z,7.93
2018-05-03T05:24:45.781Z,7.92
2018-05-03T05:25:45.788Z,7.87
2018-05-03T05:26:45.771Z,7.89
2018-05-03T05:27:45.834Z,7.88
2018-05-03T05:28:45.759Z,7.89
2018-05-03T05:29:45.815Z,7.89
2018-05-03T05:30:46.405Z,7.89
2018-05-03T05:31:45.818Z,7.9
2018-05-03T05:32:45.804Z,7.88
2018-05-03T05:33:45.816Z,7.89
2018-05-03T05:34:45.818Z,7.9
2018-05-03T05:35:45.788Z,7.86
2018-05-03T05:36:45.774Z,7.85
2018-05-03T05:37:45.782Z,7.88
2018-05-03T05:38:46.612Z,7.89
2018-05-03T05:39:45.940Z,7.89
2018-05-03T05:40:45.800Z,7.88
2018-05-03T05:41:45.765Z,7.87
2018-05-03T05:42:45.818Z,7.8
2018-05-03T05:43:45.824Z,7.81
2018-05-03T05:44:45.899Z,7.83
2018-05-03T05:45:45.860Z,7.82
2018-05-03T05:46:45.811Z,7.84
2018-05-03T05:47:45.810Z,7.85
2018-05-03T05:48:45.821Z,7.83
2018-05-03T05:49:45.768Z,7.85
2018-05-03T05:50:45.768Z,7.84
2018-05-03T05:51:45.839Z,7.82
2018-05-03T05:52:45.788Z,7.81
2018-05-03T05:53:45.816Z,7.82
2018-05-03T05:54:45.794Z,7.82
2018-05-03T05:55:45.800Z,7.85
2018-05-03T05:56:46.380Z,7.87
2018-05-03T05:57:45.786Z,7.91
2018-05-03T05:58:45.800Z,7.88
2018-05-03T05:59:45.919Z,7.87
2018-05-03T06:00:45.775Z,7.92
2018-05-03T06:01:45.962Z,7.89
2018-05-03T06:02:45.792Z,7.89
2018-05-03T06:03:45.758Z,7.82
2018-05-03T06:04:45.791Z,7.86
2018-05-03T06:05:45.783Z,7.88
2018-05-03T06:06:45.923Z,7.83
2018-05-03T06:07:45.788Z,7.82
2018-05-03T06:08:45.786Z,7.83
2018-05-03T06:09:45.825Z,7.85
2018-05-03T06:10:45.806Z,7.91
2018-05-03T06:11:45.824Z,7.92
2018-05-03T06:12:45.786Z,7.88
2018-05-03T06:13:45.787Z,7.87
2018-05-03T06:14:45.799Z,7.81
2018-05-03T06:15:45.886Z,7.83
2018-05-03T06:16:45.784Z,7.91
2018-05-03T06:17:45.811Z,7.92
2018-05-03T06:18:45.800Z,8
2018-05-03T06:19:45.779Z,8.03
2018-05-03T06:20:45.824Z,8.08
2018-05-03T06:21:45.892Z,7.93
2018-05-03T06:22:45.807Z,8
2018-05-03T06:23:45.795Z,8
2018-05-03T06:24:45.830Z,8.02
2018-05-03T06:25:45.824Z,8.14
2018-05-03T06:26:45.800Z,8.07
2018-05-03T06:27:45.813Z,8.09
2018-05-03T06:28:45.850Z,8.08
2018-05-03T06:29:45.794Z,8.13
2018-05-03T06:30:45.845Z,8.12
2018-05-03T06:31:45.825Z,8.09
2018-05-03T06:32:45.796Z,8.12
2018-05-03T06:33:45.808Z,8
2018-05-03T06:34:47.104Z,8.03
2018-05-03T06:35:45.805Z,8.08
2018-05-03T06:36:45.811Z,8.06
2018-05-03T06:37:45.849Z,8.08
2018-05-03T06:38:46.071Z,8.07
2018-05-03T06:39:45.817Z,7.94
2018-05-03T06:40:45.854Z,7.89
2018-05-03T06:41:45.812Z,7.97
2018-05-03T06:42:45.871Z,8
2018-05-03T06:43:45.779Z,7.97
2018-05-03T06:44:45.835Z,7.89
2018-05-03T06:45:45.790Z,7.94
2018-05-03T06:46:45.802Z,7.88
2018-05-03T06:47:45.905Z,7.94
2018-05-03T06:48:45.808Z,7.86
2018-05-03T06:49:45.817Z,7.93
2018-05-03T06:50:45.835Z,7.96
2018-05-03T06:51:45.801Z,8
2018-05-03T06:52:45.783Z,7.96
2018-05-03T06:53:45.861Z,7.93
2018-05-03T06:54:45.981Z,7.9
2018-05-03T06:55:45.778Z,7.95
2018-05-03T06:56:45.824Z,7.95
2018-05-03T06:57:45.806Z,7.85
2018-05-03T06:58:45.821Z,7.74
2018-05-03T06:59:45.805Z,7.77
2018-05-03T07:00:45.863Z,7.72
2018-05-03T07:01:45.821Z,7.61
2018-05-03T07:02:45.813Z,7.68
2018-05-03T07:03:45.817Z,7.59
2018-05-03T07:04:45.815Z,7.6
2018-05-03T07:05:45.798Z,7.57
2018-05-03T07:06:45.865Z,7.65
2018-05-03T07:07:45.846Z,7.63
2018-05-03T07:08:45.803Z,7.68
2018-05-03T07:09:45.817Z,7.59
2018-05-03T07:10:45.814Z,7.6
2018-05-03T07:11:45.829Z,7.6
2018-05-03T07:12:45.802Z,7.59
2018-05-03T07:13:45.802Z,7.5
2018-05-03T07:14:45.844Z,7.6
2018-05-03T07:15:45.808Z,7.51
2018-05-03T07:16:45.806Z,7.58
2018-05-03T07:17:45.822Z,7.46
2018-05-03T07:18:45.830Z,7.53
2018-05-03T07:19:45.829Z,7.49
2018-05-03T07:20:45.852Z,7.51
2018-05-03T07:21:45.865Z,7.43
2018-05-03T07:22:45.808Z,7.44
2018-05-03T07:23:46.107Z,7.44
2018-05-03T07:24:45.830Z,7.46
2018-05-03T07:25:45.829Z,7.44
2018-05-03T07:26:45.808Z,7.39
2018-05-03T07:27:45.855Z,7.39
2018-05-03T07:28:45.851Z,7.34
2018-05-03T07:29:45.817Z,7.23
2018-05-03T07:30:45.853Z,7.21
2018-05-03T07:31:45.844Z,7.28
2018-05-03T07:32:45.875Z,7.23
2018-05-03T07:33:45.819Z,7.22
2018-05-03T07:34:46.354Z,7.22
2018-05-03T07:35:45.942Z,7.27
2018-05-03T07:36:45.841Z,7.24
2018-05-03T07:37:45.871Z,7.23
2018-05-03T07:38:45.841Z,7.23
2018-05-03T07:39:45.831Z,7.22
2018-05-03T07:40:46.950Z,7.25
2018-05-03T07:41:45.829Z,7.23
2018-05-03T07:42:45.911Z,7.27
2018-05-03T07:43:45.851Z,7.24
2018-05-03T07:44:45.901Z,7.29
2018-05-03T07:45:46.214Z,7.31
2018-05-03T07:46:45.868Z,7.31
2018-05-03T07:47:45.854Z,7.34
2018-05-03T07:48:45.877Z,7.29
2018-05-03T07:49:45.830Z,7.31
2018-05-03T07:50:45.859Z,7.3
2018-05-03T07:51:45.874Z,7.34
2018-05-03T07:52:45.860Z,7.27
2018-05-03T07:53:45.829Z,7.28
2018-05-03T07:54:45.832Z,7.31
2018-05-03T07:55:45.829Z,7.32
2018-05-03T07:56:46.506Z,7.33
2018-05-03T07:57:45.881Z,7.32
2018-05-03T07:58:45.852Z,7.39
2018-05-03T07:59:45.827Z,7.35
2018-05-03T08:00:45.835Z,7.36
2018-05-03T08:01:45.842Z,7.32
2018-05-03T08:02:45.840Z,7.31
2018-05-03T08:03:45.917Z,7.27
2018-05-03T08:04:46.091Z,7.25
2018-05-03T08:05:45.829Z,7.25
2018-05-03T08:06:45.853Z,7.2
2018-05-03T08:07:46.753Z,7.17
2018-05-03T08:08:45.918Z,7.24
2018-05-03T08:09:45.929Z,7.14
2018-05-03T08:10:45.831Z,7.11
2018-05-03T08:11:45.863Z,7.13
2018-05-03T08:12:45.824Z,7.16
2018-05-03T08:13:45.812Z,7.17
2018-05-03T08:14:45.837Z,7.2
2018-05-03T08:15:45.834Z,7.19
2018-05-03T08:16:45.845Z,7.2
2018-05-03T08:17:45.852Z,7.19
2018-05-03T08:18:45.849Z,7.17
2018-05-03T08:19:45.831Z,7.22
2018-05-03T08:20:45.878Z,7.22
2018-05-03T08:21:45.883Z,7.3
2018-05-03T08:22:45.862Z,7.27
2018-05-03T08:23:45.852Z,7.31
2018-05-03T08:24:45.852Z,7.33
2018-05-03T08:25:45.850Z,7.35
2018-05-03T08:26:45.862Z,7.4
2018-05-03T08:27:45.968Z,7.38
2018-05-03T08:28:45.856Z,7.37
2018-05-03T08:29:45.838Z,7.3
2018-05-03T08:30:45.877Z,7.39
2018-05-03T08:31:46.385Z,7.46
2018-05-03T08:32:45.920Z,7.5
2018-05-03T08:33:45.927Z,7.49
2018-05-03T08:34:45.886Z,7.37
2018-05-03T08:35:45.850Z,7.46
2018-05-03T08:36:45.876Z,7.5
2018-05-03T08:37:45.858Z,7.49
2018-05-03T08:38:45.862Z,7.53
2018-05-03T08:39:45.858Z,7.53
2018-05-03T08:40:45.876Z,7.57
2018-05-03T08:41:46.001Z,7.58
2018-05-03T08:42:45.848Z,7.58
2018-05-03T08:43:45.853Z,7.55
2018-05-03T08:44:45.878Z,7.57
2018-05-03T08:45:45.869Z,7.56
2018-05-03T08:46:45.871Z,7.57
2018-05-03T08:47:45.903Z,7.44
2018-05-03T08:48:45.860Z,7.43
2018-05-03T08:49:45.912Z,7.43
2018-05-03T08:50:45.842Z,7.46
2018-05-03T08:51:45.868Z,7.42
2018-05-03T08:52:45.895Z,7.42
2018-05-03T08:53:45.885Z,7.53
2018-05-03T08:54:45.918Z,7.51
2018-05-03T08:55:46.273Z,7.57
2018-05-03T08:56:45.876Z,7.63
2018-05-03T08:57:45.880Z,7.6
2018-05-03T08:58:46.035Z,7.64
2018-05-03T08:59:45.926Z,7.71
2018-05-03T09:00:45.842Z,7.74
2018-05-03T09:01:46.473Z,7.71
2018-05-03T09:02:45.888Z,7.78
2018-05-03T09:03:45.881Z,7.8
2018-05-03T09:04:45.865Z,7.64
2018-05-03T09:05:46.036Z,7.69
2018-05-03T09:06:45.879Z,7.73
2018-05-03T09:07:46.286Z,7.75
2018-05-03T09:08:45.885Z,7.75
2018-05-03T09:09:46.019Z,7.74
2018-05-03T09:10:45.894Z,7.72
2018-05-03T09:11:45.911Z,7.71
2018-05-03T09:12:45.886Z,7.76
2018-05-03T09:13:45.868Z,7.71
2018-05-03T09:14:45.988Z,7.74
2018-05-03T09:15:45.913Z,7.74
2018-05-03T09:16:45.944Z,7.54
2018-05-03T09:17:45.913Z,7.53
2018-05-03T09:18:45.871Z,7.35
2018-05-03T09:19:45.889Z,7.46
2018-05-03T09:20:45.868Z,7.65
2018-05-03T09:21:45.865Z,7.54
2018-05-03T09:22:45.892Z,7.61
2018-05-03T09:23:45.886Z,7.68
2018-05-03T09:24:45.875Z,7.74
2018-05-03T09:25:45.872Z,7.68
2018-05-03T09:26:46.019Z,7.71
2018-05-03T09:27:45.884Z,7.74
2018-05-03T09:28:45.879Z,7.59
2018-05-03T09:29:45.931Z,7.44
2018-05-03T09:30:45.876Z,7.52
2018-05-03T09:31:45.896Z,7.48
2018-05-03T09:32:45.870Z,7.54
2018-05-03T09:33:45.894Z,7.58
2018-05-03T09:34:45.895Z,7.58
2018-05-03T09:35:45.944Z,7.58
2018-05-03T09:36:45.907Z,7.5
2018-05-03T09:37:45.877Z,7.53
2018-05-03T09:38:45.894Z,7.66
2018-05-03T09:39:45.898Z,7.58
2018-05-03T09:40:45.927Z,7.5
2018-05-03T09:41:45.967Z,7.55
2018-05-03T09:42:45.884Z,7.63
2018-05-03T09:43:45.886Z,7.67
2018-05-03T09:44:46.410Z,7.56
2018-05-03T09:45:45.961Z,7.65
2018-05-03T09:46:45.946Z,7.7
2018-05-03T09:47:46.055Z,7.51
2018-05-03T09:48:45.897Z,7.41
2018-05-03T09:49:46.033Z,7.38
2018-05-03T09:50:45.977Z,7.54
2018-05-03T09:51:45.979Z,7.54
2018-05-03T09:52:46.028Z,7.63
2018-05-03T09:53:46.218Z,7.54
2018-05-03T09:54:45.927Z,7.46
2018-05-03T09:55:45.914Z,7.42
2018-05-03T09:56:45.878Z,7.51
2018-05-03T09:57:46.001Z,7.48
2018-05-03T09:58:45.949Z,7.56
2018-05-03T09:59:46.015Z,7.49
2018-05-03T10:00:45.949Z,7.65
2018-05-03T10:01:45.912Z,7.59
2018-05-03T10:02:45.953Z,7.65
2018-05-03T10:03:45.879Z,7.66
2018-05-03T10:04:46.599Z,7.71
2018-05-03T10:05:45.989Z,7.59
2018-05-03T10:06:45.923Z,7.59
2018-05-03T10:07:45.928Z,7.55
2018-05-03T10:08:45.909Z,7.59
2018-05-03T10:09:45.914Z,7.67
2018-05-03T10:10:45.936Z,7.7
2018-05-03T10:11:45.942Z,7.72
2018-05-03T10:12:45.949Z,7.74
2018-05-03T10:13:45.898Z,7.73
2018-05-03T10:14:45.935Z,7.63
2018-05-03T10:15:45.962Z,7.65
2018-05-03T10:16:45.929Z,7.65
2018-05-03T10:17:45.956Z,7.71
2018-05-03T10:18:46.067Z,7.69
2018-05-03T10:19:46.031Z,7.68
2018-05-03T10:20:45.908Z,7.74
2018-05-03T10:21:45.913Z,7.69
2018-05-03T10:22:45.925Z,7.74
2018-05-03T10:23:46.052Z,7.7
2018-05-03T10:24:45.967Z,7.79
2018-05-03T10:25:45.940Z,7.58
2018-05-03T10:26:45.960Z,7.75
2018-05-03T10:27:45.961Z,7.71
2018-05-03T10:28:45.953Z,7.71
2018-05-03T10:29:45.889Z,7.75
2018-05-03T10:30:45.951Z,7.71
2018-05-03T10:31:45.984Z,7.68
2018-05-03T10:32:45.930Z,7.74
2018-05-03T10:33:45.955Z,7.77
2018-05-03T10:34:45.942Z,7.77
2018-05-03T10:35:46.815Z,7.91
2018-05-03T10:36:45.914Z,7.8
2018-05-03T10:37:45.915Z,7.71
2018-05-03T10:38:45.897Z,7.66
2018-05-03T10:39:45.950Z,7.65
2018-05-03T10:40:45.924Z,7.69
2018-05-03T10:41:45.923Z,7.77
2018-05-03T10:42:45.938Z,7.84
2018-05-03T10:43:46.217Z,7.74
2018-05-03T10:44:45.942Z,7.79
2018-05-03T10:45:45.923Z,7.76
2018-05-03T10:46:45.926Z,7.77
2018-05-03T10:47:45.926Z,7.81
2018-05-03T10:48:45.936Z,7.8
2018-05-03T10:49:45.947Z,7.76
2018-05-03T10:50:45.942Z,7.76
2018-05-03T10:51:45.951Z,7.71
2018-05-03T10:52:45.994Z,7.87
2018-05-03T10:53:45.903Z,7.85
2018-05-03T10:54:46.050Z,7.77
2018-05-03T10:55:45.983Z,7.73
2018-05-03T10:56:46.020Z,7.85
2018-05-03T10:57:45.931Z,7.75
2018-05-03T10:58:45.965Z,7.82
2018-05-03T10:59:45.937Z,7.69
2018-05-03T11:00:45.974Z,7.84
2018-05-03T11:01:46.004Z,7.82
2018-05-03T11:02:45.993Z,7.76
2018-05-03T11:03:46.227Z,7.91
2018-05-03T11:04:45.974Z,7.73
2018-05-03T11:05:45.972Z,7.75
2018-05-03T11:06:45.976Z,7.92
2018-05-03T11:07:45.965Z,7.72
2018-05-03T11:08:46.003Z,7.69
2018-05-03T11:09:45.938Z,7.61
2018-05-03T11:10:45.957Z,7.69
2018-05-03T11:11:45.918Z,7.68
2018-05-03T11:12:45.925Z,7.81
2018-05-03T11:13:45.946Z,7.71
2018-05-03T11:14:46.040Z,7.66
2018-05-03T11:15:45.953Z,7.72
2018-05-03T11:16:46.205Z,7.79
2018-05-03T11:17:46.022Z,7.86
2018-05-03T11:18:45.985Z,7.81
2018-05-03T11:19:45.971Z,7.63
2018-05-03T11:20:46.060Z,7.73
2018-05-03T11:21:45.957Z,7.92
2018-05-03T11:22:45.985Z,7.83
2018-05-03T11:23:46.130Z,7.72
2018-05-03T11:24:46.049Z,7.59
2018-05-03T11:25:45.978Z,7.8
2018-05-03T11:26:45.940Z,7.79
2018-05-03T11:27:46.032Z,7.81
2018-05-03T11:28:46.083Z,7.83
2018-05-03T11:29:46.112Z,7.74
2018-05-03T11:30:46.083Z,7.76
2018-05-03T11:31:45.969Z,7.74
2018-05-03T11:32:45.916Z,7.79
2018-05-03T11:33:45.932Z,7.71
2018-05-03T11:34:45.981Z,7.64
2018-05-03T11:35:45.938Z,7.42
2018-05-03T11:36:46.850Z,7.57
2018-05-03T11:37:45.955Z,7.62
2018-05-03T11:38:45.954Z,7.49
2018-05-03T11:39:46.007Z,7.24
2018-05-03T11:40:46.003Z,7.21
2018-05-03T11:41:45.954Z,7.28
2018-05-03T11:42:46.719Z,7.3
2018-05-03T11:43:45.962Z,7.22
2018-05-03T11:44:45.962Z,7.34
2018-05-03T11:45:46.037Z,7.28
2018-05-03T11:46:45.959Z,7.41
2018-05-03T11:47:46.014Z,7.39
2018-05-03T11:48:46.341Z,7.36
2018-05-03T11:49:45.948Z,7.23
2018-05-03T11:50:45.975Z,7.24
2018-05-03T11:51:45.955Z,7.26
2018-05-03T11:52:46.010Z,7.39
2018-05-03T11:53:45.963Z,7.29
2018-05-03T11:54:46.073Z,7.46
2018-05-03T11:55:46.015Z,7.48
2018-05-03T11:56:45.964Z,7.57
2018-05-03T11:57:46.159Z,7.47
2018-05-03T11:58:45.961Z,7.57
2018-05-03T11:59:46.069Z,7.7
2018-05-03T12:00:46.012Z,7.55
2018-05-03T12:01:45.944Z,7.52
2018-05-03T12:02:45.964Z,7.46
2018-05-03T12:03:45.957Z,7.4
2018-05-03T12:04:46.119Z,7.26
2018-05-03T12:05:45.987Z,7.34
2018-05-03T12:06:46.228Z,7.19
2018-05-03T12:07:46.064Z,7.18
2018-05-03T12:08:45.981Z,7.17
2018-05-03T12:09:46.100Z,7.13
2018-05-03T12:10:45.993Z,7.21
2018-05-03T12:11:46.567Z,7.19
2018-05-03T12:12:46.043Z,7.13
2018-05-03T12:13:46.042Z,6.87
2018-05-03T12:14:46.090Z,7.13
2018-05-03T12:15:46.056Z,7.18
2018-05-03T12:16:46.007Z,7.31
2018-05-03T12:17:46.028Z,7.17
2018-05-03T12:18:46.104Z,7.26
2018-05-03T12:19:46.001Z,7.37
2018-05-03T12:20:45.996Z,7.42
2018-05-03T12:21:46.000Z,7.4
2018-05-03T12:22:46.017Z,7.22
2018-05-03T12:23:46.016Z,7.3
2018-05-03T12:24:45.996Z,7.31
2018-05-03T12:25:46.043Z,7.22
2018-05-03T12:26:46.135Z,7.4
2018-05-03T12:27:45.977Z,7.47
2018-05-03T12:28:46.118Z,7.43
2018-05-03T12:29:46.017Z,7.44
2018-05-03T12:30:45.973Z,7.48
2018-05-03T12:31:46.033Z,7.5
2018-05-03T12:32:46.003Z,7.62
2018-05-03T12:33:45.964Z,7.63
2018-05-03T12:34:46.270Z,7.69
2018-05-03T12:35:46.009Z,7.72
2018-05-03T12:36:46.016Z,8
2018-05-03T12:37:46.082Z,7.73
2018-05-03T12:38:46.073Z,7.8
2018-05-03T12:39:45.974Z,7.87
2018-05-03T12:40:46.008Z,7.91
2018-05-03T12:41:45.993Z,7.89
2018-05-03T12:42:45.981Z,7.79
2018-05-03T12:43:45.966Z,7.42
2018-05-03T12:44:45.978Z,7.48
2018-05-03T12:45:45.973Z,7.81
2018-05-03T12:46:45.979Z,7.67
2018-05-03T12:47:46.043Z,7.88
2018-05-03T12:48:45.985Z,7.71
2018-05-03T12:49:45.977Z,7.87
2018-05-03T12:50:45.980Z,7.82
2018-05-03T12:51:46.293Z,7.8
2018-05-03T12:52:46.013Z,7.75
2018-05-03T12:53:46.029Z,7.58
2018-05-03T12:54:45.997Z,7.58
2018-05-03T12:55:45.994Z,7.59
2018-05-03T12:56:45.980Z,7.71
2018-05-03T12:57:45.985Z,7.65
2018-05-03T12:58:46.000Z,7.53
2018-05-03T12:59:46.019Z,7.64
2018-05-03T13:00:46.795Z,7.66
2018-05-03T13:01:46.019Z,7.85
2018-05-03T13:02:45.984Z,7.66
2018-05-03T13:03:45.995Z,7.69
2018-05-03T13:04:46.013Z,7.72
2018-05-03T13:05:46.023Z,7.71
2018-05-03T13:06:46.015Z,7.83
2018-05-03T13:07:46.177Z,7.66
2018-05-03T13:08:46.018Z,7.64
2018-05-03T13:09:46.066Z,7.61
2018-05-03T13:10:46.115Z,7.69
2018-05-03T13:11:46.030Z,7.69
2018-05-03T13:12:46.069Z,7.54
2018-05-03T13:13:46.006Z,7.71
2018-05-03T13:14:45.996Z,7.74
2018-05-03T13:15:46.018Z,7.78
2018-05-03T13:16:46.043Z,7.74
2018-05-03T13:17:46.001Z,7.52
2018-05-03T13:18:46.097Z,7.66
2018-05-03T13:19:46.005Z,7.73
2018-05-03T13:20:46.016Z,7.77
2018-05-03T13:21:45.999Z,7.71